Eships Dana — ZDJT6 — position and weather

sailwx.info

Track history (hours):
 
Tides and Currents Weather Stations Pressure Air Temp Water Temp Dewpoint Dewpoint Depression Visibility Wind Speed Wind Dir Waves Ship Positions

Eships Dana

Last reported at 2014-Jul-25 08:33 UTC. Time now 2014-Jul-25 15:57 UTC.
Position N 48°58' W 005°09'.

Length 116 m; draft 5.6 m.

Type: Tanker. MMSI: 236566000.

Date/timePositionNaut miles runAvg speedWind from/ knotsBaromVisibWave heightAir tempDewpointWater temp
2014-Jul-25 08:33N 48°58' W 005°09'1413.1
2014-Jul-25 07:29N 48°51' W 005°27'1213.1
2014-Jul-25 06:33N 48°43' W 005°41'5412.4
2014-Jul-25 02:11N 47°52' W 005°14'1014.4
2014-Jul-25 01:28N 47°44' W 005°04'1314.2
2014-Jul-25 00:33N 47°36' W 004°49'1714.4
2014-Jul-24 23:22N 47°29' W 004°26'1314.2
2014-Jul-24 22:26N 47°24' W 004°08'1314.3
2014-Jul-24 21:34N 47°17' W 003°52'1414.1
2014-Jul-24 20:34N 47°12' W 003°33'1414.3
2014-Jul-24 19:34N 47°07' W 003°13'33 5.2
2014-Jul-24 13:18N 47°07' W 002°25'0 0.0
2014-Jul-24 12:30N 47°07' W 002°25'0 0.0
2014-Jul-24 04:33N 47°07' W 002°25'0 0.0
2014-Jul-24 03:33N 47°07' W 002°25'0 0.0
2014-Jul-24 02:33N 47°07' W 002°25'0 0.0
2014-Jul-24 01:33N 47°07' W 002°25'0 0.0
2014-Jul-23 19:18N 47°07' W 002°25'  
2014-Jul-21 08:20N 38°33' W 009°56'1212.6
2014-Jul-21 07:23N 38°21' W 009°53'1112.5
2014-Jul-21 06:31N 38°11' W 009°52'1212.1
2014-Jul-21 05:33N 37°59' W 009°52'1312.4
2014-Jul-21 04:30N 37°46' W 009°52'1212.4
2014-Jul-21 03:31N 37°34' W 009°52'1212.1
2014-Jul-21 02:33N 37°22' W 009°52'1211.9
2014-Jul-21 01:33N 37°10' W 009°53'1212.2
2014-Jul-21 00:32N 36°58' W 009°53'1312.8
2014-Jul-20 23:33N 36°45' W 009°53'1312.5
2014-Jul-20 22:32N 36°34' W 009°44'1212.3
2014-Jul-20 21:32N 36°24' W 009°36'1412.3
2014-Jul-20 20:24N 36°13' W 009°26'1012.1
2014-Jul-20 19:33N 36°05' W 009°18'18 0.4
2014-Jul-18 19:11N 35°56' W 008°59'5914.5
2014-Jul-18 15:07N 36°46' W 009°37'5314.5
2014-Jul-18 11:29N 37°37' W 009°52'1414.5
2014-Jul-18 10:32N 37°50' W 009°57'1211.6
2014-Jul-18 09:31N 38°02' W 010°00'1814.7
2014-Jul-18 08:18N 38°19' W 010°05'55612.9
2014-Jul-16 13:13N 46°25' W 004°00'2414.6
2014-Jul-16 11:32N 46°39' W 003°31'1715.1
2014-Jul-16 10:26N 46°48' W 003°11'1315.3
2014-Jul-16 09:33N 46°55' W 002°54'1815.1
2014-Jul-16 08:22N 47°03' W 002°31'1212.3
2014-Jul-16 07:24N 47°12' W 002°18'1111.2
2014-Jul-16 06:24N 47°18' W 002°04'  
Track history (hours):
 
Tides and Currents Weather Stations Pressure Air Temp Water Temp Dewpoint Dewpoint Depression Visibility Wind Speed Wind Dir Waves Ship Positions

Eships Dana

Last reported at 2014-Jul-25 08:33 UTC. Time now 2014-Jul-25 15:57 UTC.
Position N 48°58' W 005°09'.

Length 116 m; draft 5.6 m.

Type: Tanker. MMSI: 236566000.

Date/timePositionNaut miles runAvg speedWind from/ knotsBaromVisibWave heightAir tempDewpointWater temp
2014-Jul-25 08:33N 48°58' W 005°09'1413.1
2014-Jul-25 07:29N 48°51' W 005°27'1213.1
2014-Jul-25 06:33N 48°43' W 005°41'5412.4
2014-Jul-25 02:11N 47°52' W 005°14'1014.4
2014-Jul-25 01:28N 47°44' W 005°04'1314.2
2014-Jul-25 00:33N 47°36' W 004°49'1714.4
2014-Jul-24 23:22N 47°29' W 004°26'1314.2
2014-Jul-24 22:26N 47°24' W 004°08'1314.3
2014-Jul-24 21:34N 47°17' W 003°52'1414.1
2014-Jul-24 20:34N 47°12' W 003°33'1414.3
2014-Jul-24 19:34N 47°07' W 003°13'33 5.2
2014-Jul-24 13:18N 47°07' W 002°25'0 0.0
2014-Jul-24 12:30N 47°07' W 002°25'0 0.0
2014-Jul-24 04:33N 47°07' W 002°25'0 0.0
2014-Jul-24 03:33N 47°07' W 002°25'0 0.0
2014-Jul-24 02:33N 47°07' W 002°25'0 0.0
2014-Jul-24 01:33N 47°07' W 002°25'0 0.0
2014-Jul-23 19:18N 47°07' W 002°25'  
2014-Jul-21 08:20N 38°33' W 009°56'1212.6
2014-Jul-21 07:23N 38°21' W 009°53'1112.5
2014-Jul-21 06:31N 38°11' W 009°52'1212.1
2014-Jul-21 05:33N 37°59' W 009°52'1312.4
2014-Jul-21 04:30N 37°46' W 009°52'1212.4
2014-Jul-21 03:31N 37°34' W 009°52'1212.1
2014-Jul-21 02:33N 37°22' W 009°52'1211.9
2014-Jul-21 01:33N 37°10' W 009°53'1212.2
2014-Jul-21 00:32N 36°58' W 009°53'1312.8
2014-Jul-20 23:33N 36°45' W 009°53'1312.5
2014-Jul-20 22:32N 36°34' W 009°44'1212.3
2014-Jul-20 21:32N 36°24' W 009°36'1412.3
2014-Jul-20 20:24N 36°13' W 009°26'1012.1
2014-Jul-20 19:33N 36°05' W 009°18'18 0.4
2014-Jul-18 19:11N 35°56' W 008°59'5914.5
2014-Jul-18 15:07N 36°46' W 009°37'5314.5
2014-Jul-18 11:29N 37°37' W 009°52'1414.5
2014-Jul-18 10:32N 37°50' W 009°57'1211.6
2014-Jul-18 09:31N 38°02' W 010°00'1814.7
2014-Jul-18 08:18N 38°19' W 010°05'55612.9
2014-Jul-16 13:13N 46°25' W 004°00'2414.6
2014-Jul-16 11:32N 46°39' W 003°31'1715.1
2014-Jul-16 10:26N 46°48' W 003°11'1315.3
2014-Jul-16 09:33N 46°55' W 002°54'1815.1
2014-Jul-16 08:22N 47°03' W 002°31'1212.3
2014-Jul-16 07:24N 47°12' W 002°18'1111.2
2014-Jul-16 06:24N 47°18' W 002°04'  

Dump ship's entire track history